createdAt,value
2022-11-15T00:01:35.666Z,32.00
2022-11-15T00:05:55.700Z,31.47
2022-11-15T00:10:14.508Z,29.47
2022-11-15T00:14:33.241Z,30.30
2022-11-15T00:18:55.015Z,28.87
2022-11-15T00:23:14.271Z,29.50
2022-11-15T00:27:33.038Z,33.13
2022-11-15T00:31:51.440Z,28.87
2022-11-15T00:36:14.114Z,31.87
2022-11-15T00:40:33.548Z,29.07
2022-11-15T00:44:52.265Z,26.17
2022-11-15T00:49:10.749Z,30.03
2022-11-15T00:53:32.389Z,33.73
2022-11-15T00:57:51.412Z,29.77
2022-11-15T01:02:10.194Z,28.80
2022-11-15T01:06:29.011Z,29.40
2022-11-15T01:10:50.200Z,28.40
2022-11-15T01:15:10.628Z,25.97
2022-11-15T01:19:29.367Z,30.10
2022-11-15T01:23:48.622Z,26.23
2022-11-15T01:28:09.913Z,23.60
2022-11-15T01:32:28.418Z,30.43
2022-11-15T01:36:47.227Z,25.60
2022-11-15T01:41:06.532Z,28.37
2022-11-15T01:45:28.008Z,24.03
2022-11-15T01:49:57.089Z,24.40
2022-11-15T01:54:22.864Z,24.97
2022-11-15T01:58:44.957Z,25.93
2022-11-15T02:03:06.780Z,24.47
2022-11-15T02:07:28.847Z,27.97
2022-11-15T02:11:50.424Z,25.83
2022-11-15T02:16:22.279Z,25.30
2022-11-15T02:21:21.223Z,25.00
2022-11-15T02:25:53.522Z,27.23
2022-11-15T02:30:30.025Z,24.20
2022-11-15T02:34:58.827Z,25.57
2022-11-15T02:39:29.313Z,23.97
2022-11-15T02:44:00.762Z,26.10
2022-11-15T02:48:25.109Z,32.93
2022-11-15T02:52:43.754Z,30.97
2022-11-15T02:57:07.783Z,28.10
2022-11-15T03:01:45.334Z,44.57
2022-11-15T03:06:24.557Z,46.97
2022-11-15T03:10:56.085Z,48.27
2022-11-15T03:15:23.637Z,36.07
2022-11-15T03:19:49.414Z,36.70
2022-11-15T03:24:12.617Z,41.80
2022-11-15T03:28:42.992Z,39.30
2022-11-15T03:33:07.130Z,38.20
2022-11-15T03:37:34.479Z,36.97
2022-11-15T03:42:07.965Z,33.30
2022-11-15T03:46:33.024Z,36.63
2022-11-15T03:50:52.620Z,35.57
2022-11-15T03:55:16.564Z,38.20
2022-11-15T03:59:38.083Z,38.60
2022-11-15T04:03:56.752Z,59.83
2022-11-15T04:08:15.265Z,38.23
2022-11-15T04:12:37.325Z,34.67
2022-11-15T04:16:58.404Z,50.90
2022-11-15T04:21:29.281Z,41.60
2022-11-15T04:25:50.320Z,39.33
2022-11-15T04:30:11.849Z,40.50
2022-11-15T04:34:33.770Z,33.33
2022-11-15T04:38:52.384Z,249.63
2022-11-15T04:43:11.190Z,78.53
2022-11-15T04:47:31.502Z,62.23
2022-11-15T04:51:52.621Z,114.27
2022-11-15T04:56:11.421Z,49.37
2022-11-15T05:00:31.763Z,62.90
2022-11-15T05:04:50.215Z,62.67
2022-11-15T05:09:11.595Z,47.93
2022-11-15T05:13:30.546Z,58.80
2022-11-15T05:17:49.916Z,31.37
2022-11-15T05:22:08.676Z,34.60
2022-11-15T05:26:30.139Z,28.93
2022-11-15T05:30:48.545Z,85.10
2022-11-15T05:35:12.854Z,90.50
2022-11-15T05:39:31.563Z,118.80
2022-11-15T05:43:54.200Z,69.77
2022-11-15T05:48:14.650Z,60.73
2022-11-15T05:52:39.981Z,48.40
2022-11-15T05:56:58.672Z,36.47
2022-11-15T06:01:19.889Z,68.43
2022-11-15T06:05:39.160Z,74.47
2022-11-15T06:09:58.104Z,33.17
2022-11-15T06:14:16.758Z,33.83
2022-11-15T06:18:40.202Z,232.87
2022-11-15T06:23:01.876Z,24.17
2022-11-15T06:27:20.464Z,37.57
2022-11-15T06:31:39.353Z,105.47
2022-11-15T06:36:05.163Z,76.93
2022-11-15T06:40:23.818Z,57.37
2022-11-15T06:44:42.764Z,52.73
2022-11-15T06:49:05.285Z,42.40
2022-11-15T06:53:32.082Z,125.77
2022-11-15T06:57:52.347Z,131.77
2022-11-15T07:02:16.187Z,52.40
2022-11-15T07:06:34.971Z,29.43
2022-11-15T07:11:11.570Z,19.23
2022-11-15T07:15:34.275Z,22.90
2022-11-15T07:19:53.140Z,116.00
2022-11-15T07:24:12.202Z,262.53
2022-11-15T07:28:34.267Z,47.27
2022-11-15T07:32:58.707Z,93.00
2022-11-15T07:37:18.104Z,15.97
2022-11-15T07:41:38.379Z,62.47
2022-11-15T07:46:03.064Z,36.63
2022-11-15T07:50:23.474Z,25.80
2022-11-15T07:54:42.944Z,21.50
2022-11-15T07:59:06.316Z,28.27
2022-11-15T08:03:31.311Z,48.53
2022-11-15T08:07:52.696Z,55.47
2022-11-15T08:12:11.772Z,36.23
2022-11-15T08:16:30.565Z,59.03
2022-11-15T08:20:51.619Z,77.30
2022-11-15T08:25:11.650Z,32.37
2022-11-15T08:29:30.723Z,85.87
2022-11-15T08:33:49.992Z,75.20
2022-11-15T08:38:12.376Z,45.40
2022-11-15T08:42:31.398Z,89.53
2022-11-15T08:46:50.413Z,59.70
2022-11-15T08:51:20.970Z,46.27
2022-11-15T08:55:44.882Z,31.70
2022-11-15T09:00:05.002Z,21.47
2022-11-15T09:04:24.655Z,22.80
2022-11-15T09:08:47.822Z,19.53
2022-11-15T09:13:15.396Z,18.90
2022-11-15T09:17:35.527Z,24.10
2022-11-15T09:21:54.882Z,19.80
2022-11-15T09:26:15.307Z,23.37
2022-11-15T09:30:37.797Z,19.10
2022-11-15T09:46:49.878Z,17.70
2022-11-15T09:52:04.002Z,14.13
2022-11-15T09:56:34.250Z,13.67
2022-11-15T10:00:48.031Z,14.20
2022-11-15T10:04:55.443Z,14.40
2022-11-15T10:09:03.673Z,14.10
2022-11-15T10:13:04.392Z,16.13
2022-11-15T10:17:52.316Z,16.10
2022-11-15T10:22:12.790Z,16.75
2022-11-15T10:26:19.914Z,14.55
2022-11-15T10:30:26.203Z,16.50
2022-11-15T10:34:30.652Z,18.08
2022-11-15T10:38:34.099Z,21.15
2022-11-15T10:42:34.643Z,18.50
2022-11-15T10:46:46.760Z,16.80
2022-11-15T10:50:50.736Z,14.90
2022-11-15T10:54:59.615Z,18.50
2022-11-15T10:59:05.623Z,20.50
2022-11-15T11:03:33.803Z,23.70
2022-11-15T11:07:45.497Z,17.00
2022-11-15T11:11:54.781Z,25.50
2022-11-15T11:16:10.090Z,20.30
2022-11-15T11:20:23.636Z,26.95
2022-11-15T11:24:37.501Z,18.05
2022-11-15T11:28:54.769Z,19.20
2022-11-15T11:33:12.165Z,16.10
2022-11-15T11:37:24.514Z,17.35
2022-11-15T11:41:46.960Z,16.27
2022-11-15T11:46:17.330Z,14.52
2022-11-15T11:50:23.145Z,17.50
2022-11-15T11:54:34.827Z,20.80
2022-11-15T11:58:42.287Z,22.88
2022-11-15T12:02:51.656Z,20.33
2022-11-15T12:06:57.254Z,15.32
2022-11-15T12:11:11.027Z,15.15
2022-11-15T12:15:20.226Z,19.33
2022-11-15T12:19:22.894Z,14.00
2022-11-15T12:23:30.379Z,14.18
2022-11-15T12:27:40.430Z,16.48
2022-11-15T12:31:45.750Z,17.58
2022-11-15T12:36:02.054Z,19.80
2022-11-15T12:40:24.749Z,12.50
2022-11-15T12:45:02.756Z,10.50
2022-11-15T12:49:05.536Z,12.43
2022-11-15T12:53:41.231Z,11.52
2022-11-15T12:57:56.998Z,12.90
2022-11-15T13:02:04.634Z,12.20
2022-11-15T13:06:14.548Z,11.25
2022-11-15T13:10:38.019Z,10.00
2022-11-15T13:14:56.738Z,10.57
2022-11-15T13:19:02.022Z,8.38
2022-11-15T13:23:13.745Z,10.88
2022-11-15T13:27:26.542Z,13.80
2022-11-15T13:31:40.016Z,11.55
2022-11-15T13:35:45.311Z,12.88
2022-11-15T13:39:46.830Z,13.43
2022-11-15T13:43:51.800Z,11.90
2022-11-15T13:48:01.690Z,17.92
2022-11-15T13:52:05.252Z,16.25
2022-11-15T13:56:09.339Z,19.77
2022-11-15T14:00:37.001Z,23.83
2022-11-15T14:04:54.705Z,31.08
2022-11-15T14:09:44.156Z,21.45
2022-11-15T14:14:06.555Z,11.63
2022-11-15T14:18:11.446Z,11.48
2022-11-15T14:22:27.294Z,9.73
2022-11-15T14:26:39.539Z,13.35
2022-11-15T14:30:43.889Z,8.23
2022-11-15T14:34:48.748Z,11.68
2022-11-15T14:38:56.532Z,28.40
2022-11-15T14:42:57.111Z,22.85
2022-11-15T14:47:00.699Z,23.17
2022-11-15T14:51:06.671Z,25.38
2022-11-15T14:55:22.917Z,12.38
2022-11-15T14:59:23.929Z,9.63
2022-11-15T15:03:26.370Z,11.05
2022-11-15T15:07:31.780Z,8.45
2022-11-15T15:11:36.394Z,9.20
2022-11-15T15:15:40.509Z,8.75
2022-11-15T15:19:41.326Z,10.00
2022-11-15T15:23:45.529Z,7.45
2022-11-15T15:27:45.614Z,8.57
2022-11-15T15:31:45.749Z,9.55
2022-11-15T15:35:46.328Z,10.93
2022-11-15T15:39:49.098Z,17.50
2022-11-15T15:43:49.480Z,20.43
2022-11-15T15:47:51.138Z,21.00
2022-11-15T15:51:51.214Z,23.20
2022-11-15T15:55:53.947Z,20.80
2022-11-15T15:59:54.113Z,16.50
2022-11-15T16:03:54.318Z,42.80
2022-11-15T16:07:54.818Z,46.00
2022-11-15T16:11:57.522Z,35.70
2022-11-15T16:15:59.016Z,34.90
2022-11-15T16:19:59.099Z,30.27
2022-11-15T16:23:59.232Z,26.50
2022-11-15T16:28:01.931Z,27.43
2022-11-15T16:32:02.291Z,28.50
2022-11-15T16:36:02.634Z,31.20
2022-11-15T16:40:02.755Z,36.43
2022-11-15T16:44:05.432Z,37.07
2022-11-15T16:48:06.157Z,44.37
2022-11-15T16:52:08.022Z,44.17
2022-11-15T16:56:21.016Z,49.17
2022-11-15T17:00:24.967Z,46.03
2022-11-15T17:04:27.786Z,49.27
2022-11-15T17:08:28.745Z,49.47
2022-11-15T17:12:31.049Z,45.90
2022-11-15T17:16:35.278Z,54.87
2022-11-15T17:20:36.015Z,53.23
2022-11-15T17:24:36.349Z,47.77
2022-11-15T17:28:37.692Z,178.87
2022-11-15T17:32:42.030Z,573.23
2022-11-15T17:36:42.125Z,524.10
2022-11-15T17:40:42.253Z,111.87
2022-11-15T17:44:42.296Z,91.63
2022-11-15T17:48:45.013Z,60.90
2022-11-15T17:52:45.376Z,50.10
2022-11-15T17:56:45.595Z,63.90
2022-11-15T18:00:45.717Z,61.30
2022-11-15T18:04:48.397Z,52.07
2022-11-15T18:08:51.004Z,357.47
2022-11-15T18:12:51.145Z,1999.90
2022-11-15T18:16:51.838Z,1999.90
2022-11-15T18:21:04.335Z,220.70
2022-11-15T18:25:04.500Z,60.13
2022-11-15T18:29:07.477Z,53.07
2022-11-15T18:33:07.572Z,59.97
2022-11-15T18:37:10.563Z,38.00
2022-11-15T18:41:14.005Z,47.50
2022-11-15T18:45:14.609Z,40.03
2022-11-15T18:49:19.752Z,42.03
2022-11-15T18:53:22.760Z,42.87
2022-11-15T18:57:23.023Z,40.03
2022-11-15T19:01:26.220Z,37.60
2022-11-15T19:05:26.396Z,39.80
2022-11-15T19:09:32.908Z,46.77
2022-11-15T19:13:33.657Z,49.17
2022-11-15T19:17:37.055Z,50.67
2022-11-15T19:21:38.405Z,49.63
2022-11-15T19:25:41.196Z,53.13
2022-11-15T19:29:41.987Z,52.07
2022-11-15T19:33:44.096Z,35.93
2022-11-15T19:37:44.221Z,30.17
2022-11-15T19:41:48.348Z,33.17
2022-11-15T19:46:01.038Z,24.83
2022-11-15T19:50:02.502Z,20.40
2022-11-15T19:54:06.804Z,25.20
2022-11-15T19:58:09.843Z,30.07
2022-11-15T20:02:11.718Z,32.93
2022-11-15T20:06:15.758Z,40.50
2022-11-15T20:10:19.688Z,36.47
2022-11-15T20:14:24.212Z,34.10
2022-11-15T20:18:26.870Z,23.67
2022-11-15T20:22:28.993Z,32.23
2022-11-15T20:26:30.356Z,33.77
2022-11-15T20:30:33.116Z,36.27
2022-11-15T20:34:33.248Z,37.33
2022-11-15T20:38:35.229Z,29.17
2022-11-15T20:42:35.645Z,22.97
2022-11-15T20:46:38.330Z,22.23
2022-11-15T20:50:43.266Z,21.93
2022-11-15T20:54:43.818Z,20.60
2022-11-15T20:58:45.808Z,14.17
2022-11-15T21:02:48.568Z,13.67
2022-11-15T21:06:49.090Z,11.70
2022-11-15T21:11:07.637Z,12.40
2022-11-15T21:15:12.257Z,12.07
2022-11-15T21:19:15.547Z,12.67
2022-11-15T21:23:15.680Z,12.93
2022-11-15T21:27:15.839Z,14.00
2022-11-15T21:31:15.984Z,16.00
2022-11-15T21:35:18.830Z,13.17
2022-11-15T21:39:19.382Z,11.43
2022-11-15T21:43:19.879Z,13.10
2022-11-15T21:47:19.956Z,12.57
2022-11-15T21:51:22.733Z,11.00
2022-11-15T21:55:22.863Z,14.43
2022-11-15T21:59:23.194Z,11.70
2022-11-15T22:03:23.319Z,11.10
2022-11-15T22:07:26.024Z,13.80
2022-11-15T22:11:26.548Z,15.53
2022-11-15T22:15:26.629Z,14.80
2022-11-15T22:19:26.914Z,14.17
2022-11-15T22:23:31.763Z,15.23
2022-11-15T22:27:32.101Z,22.63
2022-11-15T22:31:32.627Z,15.90
2022-11-15T22:35:32.871Z,14.70
2022-11-15T22:39:35.863Z,16.60
2022-11-15T22:43:36.763Z,14.10
2022-11-15T22:47:36.922Z,16.47
2022-11-15T22:51:39.015Z,13.47
2022-11-15T22:55:42.656Z,13.90
2022-11-15T22:59:42.875Z,16.83
2022-11-15T23:03:43.106Z,14.73
2022-11-15T23:07:43.656Z,14.23
2022-11-15T23:11:58.917Z,14.40
2022-11-15T23:16:19.937Z,17.87
2022-11-15T23:20:42.042Z,14.57
2022-11-15T23:24:41.110Z,15.83
2022-11-15T23:28:43.917Z,18.60
2022-11-15T23:32:56.554Z,18.47
2022-11-15T23:36:56.873Z,20.43
2022-11-15T23:40:58.083Z,19.17
2022-11-15T23:45:00.942Z,20.67
2022-11-15T23:49:01.375Z,17.37
2022-11-15T23:53:01.575Z,18.23
2022-11-15T23:57:01.773Z,21.97
